CheckWX is a tool to help pilots better visualize weather data.  It is not intended as a substitute for an official pre-flight weather briefing.

02:36:44 UTC

KOTM METAR
Ottumwa Regional Airport
Ottumwa, Iowa, USA
Current

44 mins ago

KOTM 180153Z AUTO 31007KT 3SM -SN BR OVC043 M04/M06 A2997 RMK AO2 SLP160 P0000 T10391056
Observed
Feb-18 @ 01:53 UTC
Wind
  • 310° at 7 KTS
Visibility
3 SM
Flight Rules
MVFR
Conditions
Light Snow, Mist
Cloud Levels
  • Overcast at 4,300' AGL
Temperature
-4°C / 25°F
Dewpoint
-6°C / 21°F
Humidity
86%
Altimeter
29.97" Hg
Pressure
1016 hPa
Current Rain
0.01"
Previous

1 hour ago

KOTM 180128Z AUTO 31008KT 3SM -SN BR OVC041 M04/M05 A2996 RMK AO2 P0000 T10391050
Observed
Feb-18 @ 01:28 UTC
Wind
  • 310° at 8 KTS
Visibility
3 SM
Flight Rules
MVFR
Conditions
Light Snow, Mist
Cloud Levels
  • Overcast at 4,100' AGL
Temperature
-4°C / 25°F
Dewpoint
-5°C / 23°F
Humidity
93%
Altimeter
29.96" Hg
Pressure
1014.52 hPa
Current Rain
0.01"
Previous

2 hours ago

KOTM 180053Z AUTO 32007KT 2 1/2SM -SN BR OVC036 M04/M05 A2995 RMK AO2 SLP153 P0000 T10391050
Observed
Feb-18 @ 00:53 UTC
Wind
  • 320° at 7 KTS
Visibility
2 1/2 SM
Flight Rules
IFR
Conditions
Light Snow, Mist
Cloud Levels
  • Overcast at 3,600' AGL
Temperature
-4°C / 25°F
Dewpoint
-5°C / 23°F
Humidity
93%
Altimeter
29.95" Hg
Pressure
1015.3 hPa
Current Rain
0.01"